Time;durP1;ratioP1;P1;durP2;ratioP2;P2;SDS_P1;SDS_P2;PMS_P1;PMS_P2;Temp;Humidity;BMP_temperature;BMP_pressure;BME280_temperature;BME280_humidity;BME280_pressure;Samples;Min_cycle;Max_cycle;Signal;HPM_P1;HPM_P2
2023/10/19 00:00:21;;;;;;;60.90;48.50;;;;;;;42.67;8.16;99937.67;110816;1263;21983;-82
2023/10/19 00:03:26;;;;;;;56.50;46.40;;;;;;;42.65;8.32;99931.80;111075;1258;23114;-83
2023/10/19 00:06:11;;;;;;;52.60;45.40;;;;;;;42.49;8.37;99923.08;110964;1258;22416;-84
2023/10/19 00:09:11;;;;;;;51.50;45.70;;;;;;;42.26;8.33;99919.11;110548;1263;22039;-82
2023/10/19 00:12:00;;;;;;;55.60;45.70;;;;;;;42.25;8.22;99918.17;110520;1263;22897;-82
2023/10/19 00:14:32;;;;;;;56.90;48.10;;;;;;;42.00;8.57;99917.13;110363;1266;22030;-82
2023/10/19 00:17:10;;;;;;;65.90;48.10;;;;;;;42.26;8.43;99911.96;110093;1266;21972;-83
2023/10/19 00:22:57;;;;;;;54.40;45.60;;;;;;;42.38;8.39;99907.93;109711;1267;21997;-82
2023/10/19 00:25:50;;;;;;;57.10;47.30;;;;;;;42.41;8.40;99909.63;109893;1266;23064;-81
2023/10/19 00:28:29;;;;;;;58.40;48.20;;;;;;;42.46;8.35;99904.89;110047;1267;22045;-82
2023/10/19 00:31:21;;;;;;;58.10;50.70;;;;;;;42.45;8.21;99899.14;109752;1267;22206;-82
2023/10/19 00:34:00;;;;;;;56.60;49.00;;;;;;;42.41;8.32;99895.48;110196;1264;21975;-83
2023/10/19 00:36:45;;;;;;;57.60;50.50;;;;;;;42.48;8.30;99890.30;110636;1264;21982;-82
2023/10/19 00:39:28;;;;;;;54.90;49.00;;;;;;;42.54;8.36;99887.70;110767;1260;23113;-81
2023/10/19 00:42:02;;;;;;;59.60;50.60;;;;;;;42.41;8.43;99884.34;110847;1260;22032;-84
2023/10/19 00:44:48;;;;;;;58.80;51.70;;;;;;;42.48;8.45;99879.92;110482;1261;21967;-84
2023/10/19 00:47:24;;;;;;;58.40;52.20;;;;;;;42.55;8.36;99877.76;110764;1259;23583;-83
2023/10/19 00:50:22;;;;;;;57.30;51.10;;;;;;;42.51;8.22;99872.02;110283;1265;21985;-82
2023/10/19 00:52:57;;;;;;;56.90;50.90;;;;;;;42.39;8.18;99867.57;110249;1265;22144;-83
2023/10/19 00:55:41;;;;;;;60.40;51.30;;;;;;;42.41;8.30;99861.47;110143;1265;21975;-83
2023/10/19 00:58:29;;;;;;;57.50;50.90;;;;;;;42.40;8.34;99857.79;110349;1265;23761;-84
2023/10/19 01:01:19;;;;;;;58.90;50.10;;;;;;;42.42;8.43;99852.75;109899;1270;22000;-82
2023/10/19 01:03:56;;;;;;;58.10;49.30;;;;;;;42.34;8.42;99844.82;109741;1271;22017;-83
2023/10/19 01:06:31;;;;;;;53.30;47.70;;;;;;;42.31;8.32;99840.05;110067;1268;22001;-82
2023/10/19 01:09:16;;;;;;;53.90;47.40;;;;;;;42.25;8.37;99837.24;110633;1260;21983;-81
2023/10/19 01:11:49;;;;;;;60.70;49.60;;;;;;;42.13;8.49;99830.74;110872;1260;23069;-83
2023/10/19 01:14:32;;;;;;;60.40;48.50;;;;;;;42.04;8.50;99829.61;110890;1260;22263;-83
2023/10/19 01:17:26;;;;;;;52.30;46.60;;;;;;;42.30;8.40;99820.98;110981;1258;21980;-84
2023/10/19 01:20:07;;;;;;;57.60;48.50;;;;;;;42.33;8.43;99819.48;111166;1253;21992;-81
2023/10/19 01:23:20;;;;;;;52.40;46.10;;;;;;;42.34;8.44;99814.98;111581;1253;24591;-85
2023/10/19 01:26:19;;;;;;;;;;;;;;;;;;;;;
2023/10/19 01:29:16;;;;;;;55.00;45.60;;;;;;;42.37;8.32;99801.04;111084;1259;23033;-81
2023/10/19 01:32:09;;;;;;;54.40;45.60;;;;;;;42.41;8.49;99793.73;110882;1259;21997;-81
2023/10/19 01:34:47;;;;;;;56.20;47.10;;;;;;;42.27;8.56;99785.30;110927;1260;21972;-81
2023/10/19 01:37:24;;;;;;;55.00;47.50;;;;;;;42.24;8.43;99779.05;110493;1264;21970;-81
2023/10/19 01:40:01;;;;;;;50.30;44.90;;;;;;;42.17;8.48;99776.45;110472;1264;22440;-82
2023/10/19 01:42:35;;;;;;;49.50;44.00;;;;;;;42.21;8.31;99773.09;110035;1261;23842;-82
2023/10/19 01:45:06;;;;;;;53.90;46.90;;;;;;;42.23;8.46;99772.80;110622;1259;21977;-83
2023/10/19 01:47:45;;;;;;;52.90;46.70;;;;;;;42.06;8.57;99771.57;110850;1260;23365;-82
2023/10/19 01:50:21;;;;;;;55.90;45.90;;;;;;;42.09;8.54;99767.93;110301;1265;22767;-81
2023/10/19 01:52:55;;;;;;;54.80;46.60;;;;;;;42.07;8.43;99760.16;110277;1266;21977;-83
2023/10/19 01:55:29;;;;;;;52.90;47.10;;;;;;;42.01;8.52;99757.89;109749;1266;22009;-82
2023/10/19 01:58:16;;;;;;;51.40;45.70;;;;;;;42.02;8.61;99749.54;110264;1264;23583;-83
2023/10/19 02:00:47;;;;;;;53.50;44.50;;;;;;;41.87;8.62;99744.56;109447;1271;23035;-82
2023/10/19 02:03:37;;;;;;;56.30;45.90;;;;;;;41.86;8.72;99741.16;109540;1271;23040;-82
2023/10/19 02:06:20;;;;;;;52.00;44.50;;;;;;;42.00;8.78;99738.33;109488;1266;22128;-82
2023/10/19 02:09:17;;;;;;;54.60;46.20;;;;;;;41.99;8.73;99738.70;109455;1271;22002;-81
2023/10/19 02:12:06;;;;;;;52.40;46.50;;;;;;;41.70;8.49;99725.31;109668;1271;21995;-82
2023/10/19 02:14:46;;;;;;;54.20;46.30;;;;;;;41.88;8.74;99722.96;110299;1260;23588;-80
2023/10/19 02:17:30;;;;;;;54.50;47.30;;;;;;;42.06;8.47;99714.61;110758;1260;21963;-82
2023/10/19 02:20:24;;;;;;;55.20;46.30;;;;;;;42.04;8.60;99711.53;110806;1260;22979;-81
2023/10/19 02:23:22;;;;;;;53.90;45.60;;;;;;;42.25;8.50;99699.66;110804;1258;21989;-82
2023/10/19 02:26:03;;;;;;;52.90;43.00;;;;;;;42.18;8.56;99690.54;110822;1260;21988;-81
2023/10/19 02:28:37;;;;;;;48.60;41.40;;;;;;;42.15;8.56;99683.36;110416;1265;23051;-83
2023/10/19 02:31:21;;;;;;;49.50;42.80;;;;;;;42.11;8.38;99681.41;110310;1264;21998;-82
2023/10/19 02:34:04;;;;;;;46.80;41.40;;;;;;;42.04;8.53;99676.68;110384;1264;22006;-82
2023/10/19 02:36:50;;;;;;;46.00;38.90;;;;;;;42.16;8.60;99675.08;110400;1264;21988;-83
2023/10/19 02:39:30;;;;;;;47.80;39.90;;;;;;;42.24;8.43;99674.80;110896;1258;21929;-83
2023/10/19 02:42:06;;;;;;;47.00;40.20;;;;;;;42.33;8.38;99669.23;110936;1258;22280;-84
2023/10/19 02:44:51;;;;;;;43.70;37.10;;;;;;;42.37;8.67;99661.57;111037;1258;21926;-83
2023/10/19 02:47:23;;;;;;;47.60;38.20;;;;;;;42.24;8.60;99660.45;110912;1259;22164;-84
2023/10/19 02:50:10;;;;;;;40.00;35.60;;;;;;;42.25;8.50;99659.40;110606;1262;21963;-82
2023/10/19 02:52:43;;;;;;;41.90;36.50;;;;;;;42.40;8.51;99656.67;110272;1264;21992;-81
2023/10/19 02:55:25;;;;;;;46.00;39.00;;;;;;;42.27;8.49;99655.55;110498;1263;22105;-81
2023/10/19 02:57:59;;;;;;;41.70;37.10;;;;;;;42.48;8.34;99654.48;110437;1263;21995;-82
2023/10/19 03:00:41;;;;;;;42.10;36.30;;;;;;;42.47;8.32;99645.27;110843;1263;22466;-82
2023/10/19 03:03:12;;;;;;;43.40;36.40;;;;;;;42.42;8.25;99641.36;110038;1261;22910;-82
2023/10/19 03:05:55;;;;;;;44.50;36.90;;;;;;;42.44;8.32;99635.91;109765;1268;22104;-82
2023/10/19 03:08:35;;;;;;;41.00;34.80;;;;;;;42.37;8.53;99636.39;109751;1267;23704;-82
2023/10/19 03:11:22;;;;;;;39.60;35.40;;;;;;;42.40;8.33;99634.79;110113;1264;23625;-83
2023/10/19 03:14:05;;;;;;;43.00;34.40;;;;;;;42.29;8.44;99627.13;110484;1260;21965;-83
2023/10/19 03:16:42;;;;;;;41.30;34.10;;;;;;;42.25;8.43;99626.45;110046;1267;23706;-82
2023/10/19 03:19:26;;;;;;;44.70;34.30;;;;;;;42.24;8.36;99626.52;110392;1266;21968;-81
2023/10/19 03:22:00;;;;;;;40.20;34.90;;;;;;;42.38;8.35;99619.52;110037;1265;22790;-83
2023/10/19 03:24:58;;;;;;;40.60;34.50;;;;;;;42.40;8.32;99615.27;110297;1266;22046;-82
2023/10/19 03:27:34;;;;;;;39.80;34.50;;;;;;;42.47;8.43;99612.80;110190;1266;21922;-83
2023/10/19 03:30:14;;;;;;;37.00;33.00;;;;;;;42.55;8.32;99612.06;110013;1269;23599;-81
2023/10/19 03:32:44;;;;;;;38.00;33.60;;;;;;;42.54;8.20;99606.98;110014;1269;21981;-81
2023/10/19 03:35:28;;;;;;;38.20;33.40;;;;;;;42.56;8.23;99607.89;110259;1264;21993;-81
2023/10/19 03:38:16;;;;;;;39.20;32.70;;;;;;;42.54;8.38;99602.31;110053;1268;21981;-82
2023/10/19 03:40:59;;;;;;;36.70;30.70;;;;;;;42.60;8.38;99589.69;110350;1265;22899;-81
2023/10/19 03:43:31;;;;;;;38.20;33.10;;;;;;;42.56;8.33;99579.95;110334;1265;22480;-81
2023/10/19 03:46:53;;;;;;;35.70;31.60;;;;;;;42.46;8.53;99581.59;110598;1265;22001;-81
2023/10/19 03:49:16;;;;;;;35.30;31.30;;;;;;;42.55;8.37;99578.99;110707;1259;22771;-81
2023/10/19 03:52:20;;;;;;;38.20;32.90;;;;;;;42.50;8.41;99580.02;110857;1260;22457;-81
2023/10/19 03:55:00;;;;;;;37.90;32.70;;;;;;;42.57;8.19;99574.48;110983;1259;21981;-82
2023/10/19 03:57:41;;;;;;;40.20;32.90;;;;;;;42.43;8.24;99568.63;111017;1259;21947;-82
2023/10/19 04:00:16;;;;;;;42.40;33.80;;;;;;;42.36;8.37;99564.30;111009;1259;21969;-80
2023/10/19 04:02:55;;;;;;;41.90;32.30;;;;;;;42.47;8.56;99561.07;110497;1262;22122;-80
2023/10/19 04:05:37;;;;;;;39.10;33.00;;;;;;;42.42;8.37;99559.58;110569;1262;22291;-80
2023/10/19 04:08:17;;;;;;;39.20;32.60;;;;;;;42.41;8.43;99556.51;110321;1262;21994;-81
2023/10/19 04:13:41;;;;;;;42.40;34.10;;;;;;;42.58;8.33;99539.74;110715;1262;23736;-82
2023/10/19 04:16:15;;;;;;;39.90;34.80;;;;;;;42.57;8.36;99536.66;110693;1258;21946;-82
2023/10/19 04:18:48;;;;;;;37.80;32.50;;;;;;;42.49;8.21;99528.91;110755;1258;21974;-81
2023/10/19 04:21:28;;;;;;;41.70;34.10;;;;;;;42.42;8.41;99529.18;110969;1253;21981;-82
2023/10/19 04:23:59;;;;;;;43.60;38.70;;;;;;;42.44;8.56;99532.19;111631;1253;21973;-82
2023/10/19 04:26:54;;;;;;;39.70;34.80;;;;;;;42.43;8.52;99526.61;111675;1254;21981;-83
2023/10/19 04:29:43;;;;;;;45.70;37.50;;;;;;;42.65;8.23;99521.30;111556;1254;22439;-83
2023/10/19 04:32:37;;;;;;;51.20;38.40;;;;;;;42.67;8.27;99518.03;111408;1253;24356;-85
2023/10/19 04:35:34;;;;;;;54.50;39.50;;;;;;;42.59;8.43;99517.61;111351;1252;21978;-83
2023/10/19 04:38:18;;;;;;;;;;;;;;;42.62;8.51;99514.67;111395;1254;22318;-83
2023/10/19 04:41:12;;;;;;;37.80;33.80;;;;;;;42.86;8.42;99506.57;111471;1253;22588;-81
2023/10/19 04:43:49;;;;;;;43.20;35.30;;;;;;;42.59;8.47;99497.10;111109;1259;22025;-82
2023/10/19 04:46:38;;;;;;;41.50;34.70;;;;;;;42.67;8.47;99490.05;110927;1258;21963;-83
2023/10/19 04:49:12;;;;;;;38.50;31.70;;;;;;;42.64;8.33;99492.22;110923;1258;23044;-80
2023/10/19 04:51:50;;;;;;;35.50;31.40;;;;;;;42.65;8.50;99485.03;111126;1258;21988;-80
2023/10/19 04:54:29;;;;;;;38.30;31.90;;;;;;;42.66;8.41;99487.20;111014;1259;22252;-82
2023/10/19 04:57:10;;;;;;;39.60;34.50;;;;;;;42.65;8.36;99490.65;111118;1259;22968;-81
2023/10/19 04:59:47;;;;;;;44.10;32.10;;;;;;;42.63;8.50;99496.17;111160;1259;21985;-81
2023/10/19 05:02:30;;;;;;;39.50;32.10;;;;;;;42.55;8.51;99498.84;111181;1254;22008;-82
2023/10/19 05:05:13;;;;;;;38.40;31.40;;;;;;;42.58;8.38;99497.17;111305;1252;21954;-83
2023/10/19 05:07:51;;;;;;;36.60;32.20;;;;;;;42.65;8.42;99499.56;111432;1253;21953;-81
2023/10/19 05:10:29;;;;;;;42.30;33.50;;;;;;;42.56;8.39;99495.09;111306;1253;21953;-83
2023/10/19 05:13:12;;;;;;;44.50;33.30;;;;;;;42.67;8.31;99492.56;111342;1253;21996;-79
2023/10/19 05:15:49;;;;;;;42.90;34.60;;;;;;;42.78;8.44;99495.84;111233;1254;23632;-78
2023/10/19 05:18:22;;;;;;;38.30;32.50;;;;;;;42.69;8.27;99489.91;111434;1253;23696;-80
2023/10/19 05:21:02;;;;;;;40.00;34.50;;;;;;;42.66;8.29;99487.46;110809;1260;24590;-82
2023/10/19 05:23:36;;;;;;;45.90;36.10;;;;;;;42.75;8.23;99484.63;110186;1264;23106;-81
2023/10/19 05:26:14;;;;;;;45.10;37.40;;;;;;;42.85;8.27;99483.38;110505;1264;22335;-81
2023/10/19 05:28:47;;;;;;;42.30;34.50;;;;;;;42.94;8.34;99474.72;110650;1264;22347;-80
2023/10/19 05:31:21;;;;;;;55.20;38.30;;;;;;;43.07;8.38;99471.47;110599;1264;23713;-81
2023/10/19 05:34:02;;;;;;;52.10;37.10;;;;;;;43.22;8.18;99471.06;110576;1263;22619;-81
2023/10/19 05:36:36;;;;;;;72.90;61.40;;;;;;;43.15;8.18;99468.12;109834;1270;21989;-79
2023/10/19 05:39:10;;;;;;;53.30;41.10;;;;;;;43.03;8.11;99465.08;109824;1266;22942;-81
2023/10/19 05:41:47;;;;;;;115.70;80.90;;;;;;;43.00;8.30;99462.67;110125;1258;23021;-81
2023/10/19 05:44:20;;;;;;;64.60;43.30;;;;;;;43.00;8.27;99461.45;110891;1259;21976;-80
2023/10/19 05:46:51;;;;;;;94.00;55.90;;;;;;;43.00;8.22;99459.10;110199;1265;22256;-80
2023/10/19 05:49:31;;;;;;;57.10;40.60;;;;;;;43.03;8.18;99462.67;110150;1265;22948;-81
2023/10/19 05:52:08;;;;;;;67.40;46.40;;;;;;;43.07;8.35;99460.04;109698;1268;21998;-81
2023/10/19 05:54:53;;;;;;;110.50;68.20;;;;;;;43.30;8.35;99460.95;109605;1268;21979;-80
2023/10/19 05:57:24;;;;;;;64.30;45.60;;;;;;;43.41;8.32;99462.77;109735;1268;23800;-81
2023/10/19 05:59:58;;;;;;;127.80;103.40;;;;;;;43.54;8.21;99458.73;109257;1274;22018;-81
2023/10/19 06:02:29;;;;;;;52.30;44.30;;;;;;;43.50;8.25;99454.55;109180;1274;23061;-80
2023/10/19 06:05:04;;;;;;;41.70;34.40;;;;;;;43.56;8.15;99452.48;109314;1274;23599;-80
2023/10/19 06:07:38;;;;;;;39.80;32.80;;;;;;;43.74;8.06;99445.95;109281;1274;21981;-79
2023/10/19 06:10:20;;;;;;;42.00;33.20;;;;;;;43.36;8.18;99448.55;109325;1272;21982;-83
2023/10/19 06:12:53;;;;;;;39.60;33.90;;;;;;;43.56;8.04;99441.39;110375;1259;23584;-79
2023/10/19 06:15:31;;;;;;;45.40;34.60;;;;;;;43.47;8.25;99431.52;110722;1263;22038;-80
2023/10/19 06:18:04;;;;;;;37.10;33.00;;;;;;;43.53;8.25;99421.66;110729;1263;21957;-78
2023/10/19 06:20:40;;;;;;;35.60;31.50;;;;;;;43.60;8.19;99415.73;110016;1268;22730;-78
2023/10/19 06:23:26;;;;;;;41.60;35.40;;;;;;;43.43;8.36;99417.91;109785;1268;23618;-78
2023/10/19 06:26:11;;;;;;;48.60;35.40;;;;;;;43.51;8.35;99420.48;110349;1265;23616;-79
2023/10/19 06:28:50;;;;;;;45.50;33.80;;;;;;;43.59;8.23;99422.35;110164;1264;22820;-79
2023/10/19 06:31:26;;;;;;;58.70;39.60;;;;;;;43.72;8.14;99420.20;109802;1268;21974;-81
2023/10/19 06:34:10;;;;;;;50.50;35.70;;;;;;;43.91;8.17;99419.66;109763;1265;21975;-81
2023/10/19 06:36:46;;;;;;;55.50;35.60;;;;;;;44.09;8.21;99417.81;109733;1268;22448;-80
2023/10/19 06:39:18;;;;;;;;;;;;;;;44.10;8.13;99418.35;110350;1258;21959;-78
2023/10/19 06:41:56;;;;;;;55.20;34.70;;;;;;;44.34;8.01;99419.56;110922;1258;24405;-78
2023/10/19 06:44:32;;;;;;;68.50;48.70;;;;;;;44.25;8.25;99414.39;110990;1258;22058;-80
2023/10/19 06:47:13;;;;;;;88.70;60.60;;;;;;;44.44;8.10;99406.71;110345;1265;21973;-83
2023/10/19 06:49:47;;;;;;;83.20;58.20;;;;;;;44.42;7.98;99408.16;110648;1259;21975;-81
2023/10/19 06:52:20;;;;;;;48.50;37.60;;;;;;;44.30;8.00;99417.92;110780;1259;22997;-80
2023/10/19 06:54:53;;;;;;;36.70;31.50;;;;;;;44.17;8.16;99424.33;110373;1266;21996;-80
2023/10/19 06:57:27;;;;;;;35.70;29.40;;;;;;;44.03;8.16;99439.19;110303;1266;23531;-80
2023/10/19 07:00:10;;;;;;;43.00;31.50;;;;;;;44.14;8.16;99445.65;110351;1266;22018;-79
2023/10/19 07:02:44;;;;;;;40.70;31.30;;;;;;;44.03;8.25;99440.07;110364;1266;21973;-81
2023/10/19 07:05:24;;;;;;;38.90;30.60;;;;;;;44.07;8.15;99439.63;110633;1258;22976;-80
2023/10/19 07:07:56;;;;;;;38.70;30.40;;;;;;;44.08;8.17;99437.06;110575;1262;21973;-80
2023/10/19 07:10:27;;;;;;;37.30;30.90;;;;;;;44.21;8.20;99430.91;109958;1267;21977;-79
2023/10/19 07:13:05;;;;;;;37.00;32.30;;;;;;;44.38;8.23;99430.35;110135;1264;22040;-80
2023/10/19 07:15:41;;;;;;;38.70;30.00;;;;;;;44.48;8.10;99424.95;110208;1264;23035;-79
2023/10/19 07:18:13;;;;;;;36.50;32.20;;;;;;;44.40;8.18;99425.27;110738;1264;21982;-79
2023/10/19 07:20:43;;;;;;;;;;;;;;;44.34;8.05;99417.95;110077;1267;23604;-80
2023/10/19 07:23:21;;;;;;;39.10;31.50;;;;;;;44.69;8.12;99410.73;109816;1273;21991;-81
2023/10/19 07:25:59;;;;;;;37.50;31.80;;;;;;;44.39;8.19;99405.96;110261;1270;21974;-84
2023/10/19 07:29:01;;;;;;;33.80;28.50;;;;;;;44.38;8.25;99398.29;109747;1272;22525;-80
2023/10/19 07:31:35;;;;;;;32.60;27.20;;;;;;;44.38;8.23;99385.88;110022;1272;22009;-81
2023/10/19 07:34:16;;;;;;;;;;;;;;;;;;;;;
2023/10/19 07:37:28;;;;;;;36.80;29.00;;;;;;;44.42;8.23;99376.98;110769;1241;21940;31
2023/10/19 07:40:53;;;;;;;36.80;28.60;;;;;;;44.74;7.94;99358.27;112111;1236;21929;31
2023/10/19 07:43:26;;;;;;;31.90;28.60;;;;;;;44.97;8.02;99351.48;111245;1262;21782;-82
2023/10/19 07:46:25;;;;;;;33.90;28.90;;;;;;;44.90;8.05;99347.55;110496;1270;22089;-80
2023/10/19 07:49:24;;;;;;;35.80;29.20;;;;;;;44.98;8.13;99338.93;109778;1268;22271;-80
2023/10/19 07:51:59;;;;;;;32.00;26.50;;;;;;;44.98;8.09;99329.66;109885;1270;22020;-81
2023/10/19 07:54:40;;;;;;;32.20;26.70;;;;;;;44.96;8.05;99324.69;109570;1270;22068;-80
2023/10/19 07:57:15;;;;;;;29.50;24.60;;;;;;;45.00;8.06;99316.40;109680;1270;21989;-81
2023/10/19 07:59:50;;;;;;;35.10;26.10;;;;;;;45.04;8.08;99308.17;105209;1270;6249105;-81
2023/10/19 08:06:30;;;;;;;29.90;25.50;;;;;;;45.57;7.86;99296.29;111499;1263;21987;-80
2023/10/19 08:09:09;;;;;;;34.80;26.70;;;;;;;45.39;7.94;99298.99;110841;1253;22813;-80
2023/10/19 08:11:42;;;;;;;32.50;24.50;;;;;;;45.48;7.95;99297.17;110304;1269;22003;-81
2023/10/19 08:14:21;;;;;;;31.20;27.40;;;;;;;45.37;7.98;99294.17;109649;1269;21995;-80
2023/10/19 08:17:05;;;;;;;32.50;28.10;;;;;;;45.34;8.01;99297.61;109625;1269;22913;-81
2023/10/19 08:19:45;;;;;;;36.20;27.30;;;;;;;45.52;8.07;99296.72;109961;1270;23078;-80
2023/10/19 08:22:23;;;;;;;29.20;25.70;;;;;;;45.44;7.88;99289.29;109687;1269;23687;-79
2023/10/19 08:24:54;;;;;;;32.60;28.70;;;;;;;45.39;7.94;99282.95;109523;1269;21998;-80
2023/10/19 08:27:33;;;;;;;30.10;26.20;;;;;;;45.61;7.88;99278.52;109702;1269;22010;-81
2023/10/19 08:30:04;;;;;;;30.40;26.20;;;;;;;45.52;7.86;99286.58;110011;1253;23065;-81
2023/10/19 08:32:47;;;;;;;36.40;31.50;;;;;;;45.43;7.98;99285.88;110175;1267;22008;-80
2023/10/19 08:35:26;;;;;;;34.60;28.60;;;;;;;45.61;8.01;99282.27;109808;1267;21949;-80
2023/10/19 08:37:58;;;;;;;35.00;28.10;;;;;;;45.77;7.86;99284.38;109932;1264;21992;-80
2023/10/19 08:40:35;;;;;;;;;;;;;;;45.77;8.04;99288.63;109847;1267;22011;-81
2023/10/19 08:43:17;;;;;;;37.50;27.30;;;;;;;46.06;7.85;99293.85;110073;1268;22015;-81
2023/10/19 08:46:08;;;;;;;31.70;27.20;;;;;;;46.16;7.89;99294.77;109159;1274;23016;-82
2023/10/19 08:48:59;;;;;;;31.20;27.60;;;;;;;46.26;7.63;99286.66;109376;1274;24165;-80
2023/10/19 08:51:38;;;;;;;33.10;28.70;;;;;;;46.28;7.74;99281.83;109618;1270;23724;-79
2023/10/19 08:54:11;;;;;;;32.40;28.20;;;;;;;46.05;7.64;99280.73;109677;1270;22312;-81
2023/10/19 08:56:47;;;;;;;31.30;28.10;;;;;;;45.65;7.67;99277.25;109622;1270;22557;-83
2023/10/19 08:59:32;;;;;;;29.90;26.60;;;;;;;45.45;7.78;99275.09;109637;1270;22056;-82
2023/10/19 09:02:23;;;;;;;32.40;27.80;;;;;;;45.55;7.94;99270.68;109625;1270;23780;-82
2023/10/19 09:05:19;;;;;;;33.80;28.70;;;;;;;45.76;7.86;99262.09;110486;1263;22358;-82
2023/10/19 09:08:09;;;;;;;36.60;29.80;;;;;;;45.88;7.76;99257.40;110725;1262;22007;-83
2023/10/19 09:10:45;;;;;;;38.00;30.20;;;;;;;45.66;7.94;99254.09;110609;1262;21941;-78
2023/10/19 09:13:27;;;;;;;33.50;27.50;;;;;;;45.55;7.82;99256.48;110339;1262;22000;-85
2023/10/19 09:16:08;;;;;;;29.80;26.40;;;;;;;45.77;8.05;99261.70;110754;1252;23021;-84
2023/10/19 09:18:53;;;;;;;36.70;29.80;;;;;;;45.83;8.00;99258.40;110879;1262;22002;-77
2023/10/19 09:21:27;;;;;;;35.10;30.00;;;;;;;46.04;7.95;99263.34;110060;1268;21989;-80
2023/10/19 09:23:57;;;;;;;31.90;28.50;;;;;;;46.20;7.87;99260.77;110149;1268;23046;-78
2023/10/19 09:26:32;;;;;;;31.60;28.10;;;;;;;46.18;7.80;99252.90;110065;1268;21981;-78
2023/10/19 09:29:03;;;;;;;32.80;27.10;;;;;;;46.01;7.58;99251.94;110040;1267;22001;-78
2023/10/19 09:31:35;;;;;;;33.90;26.90;;;;;;;46.03;7.64;99255.80;110074;1263;23125;-79
2023/10/19 09:34:10;;;;;;;34.20;27.80;;;;;;;45.94;7.75;99248.18;110040;1268;23797;-78
2023/10/19 09:36:43;;;;;;;32.90;28.20;;;;;;;45.99;7.81;99248.38;110175;1266;22081;-79
2023/10/19 09:39:16;;;;;;;33.50;27.00;;;;;;;46.08;7.64;99247.06;109796;1268;21996;-81
2023/10/19 09:41:52;;;;;;;34.00;28.80;;;;;;;46.26;7.64;99245.38;110154;1267;23122;-79
2023/10/19 09:44:28;;;;;;;38.70;28.40;;;;;;;46.41;7.62;99240.52;109740;1271;22015;-79
2023/10/19 09:47:04;;;;;;;36.70;28.70;;;;;;;48.92;6.72;99226.61;109527;1271;23078;-78
2023/10/19 09:49:45;;;;;;;41.70;31.60;;;;;;;48.16;6.93;99229.30;109312;1274;22467;-79
2023/10/19 09:52:16;;;;;;;35.90;31.90;;;;;;;46.85;7.64;99233.33;109051;1274;22459;-80
2023/10/19 09:55:25;;;;;;;40.40;31.50;;;;;;;46.67;7.73;99230.87;109498;1275;21980;-80
2023/10/19 09:58:21;;;;;;;33.70;30.00;;;;;;;46.69;7.40;99218.27;109273;1273;21987;-81
2023/10/19 10:01:19;;;;;;;34.20;28.60;;;;;;;46.59;7.64;99213.70;109611;1271;21995;-78
2023/10/19 10:03:51;;;;;;;30.10;24.80;;;;;;;46.33;7.63;99212.45;110340;1267;22811;-80
2023/10/19 10:06:59;;;;;;;30.80;26.70;;;;;;;46.10;7.85;99203.96;110362;1267;22003;-80
2023/10/19 10:09:40;;;;;;;34.60;26.10;;;;;;;46.32;7.75;99195.23;109846;1272;22738;-81
2023/10/19 10:12:38;;;;;;;33.50;27.80;;;;;;;46.38;7.67;99191.98;109772;1272;22028;-79
2023/10/19 10:15:19;;;;;;;44.90;33.40;;;;;;;46.54;7.66;99192.84;109432;1275;23611;-79
2023/10/19 10:17:54;;;;;;;39.20;32.70;;;;;;;46.51;7.66;99191.83;109296;1276;22373;-80
2023/10/19 10:20:38;;;;;;;38.60;28.50;;;;;;;46.64;7.72;99189.84;109417;1273;23830;-78
2023/10/19 10:24:16;;;;;;;32.20;28.00;;;;;;;46.56;7.44;99189.14;109389;1273;22837;-80
2023/10/19 10:27:00;;;;;;;30.70;25.60;;;;;;;46.83;7.42;99187.52;109191;1278;22279;-78
2023/10/19 10:29:31;;;;;;;26.80;23.80;;;;;;;46.72;7.64;99189.14;109156;1274;21982;-79
2023/10/19 10:32:05;;;;;;;31.80;26.30;;;;;;;46.42;7.64;99190.23;109070;1275;22070;-80
2023/10/19 10:34:37;;;;;;;33.40;27.00;;;;;;;46.38;7.93;99182.45;109224;1274;21992;-80
2023/10/19 10:37:16;;;;;;;33.10;27.90;;;;;;;46.37;7.87;99177.81;109198;1275;21987;-78
2023/10/19 10:40:00;;;;;;;35.40;25.90;;;;;;;46.25;7.75;99174.48;109086;1275;21982;-77
2023/10/19 10:42:30;;;;;;;35.30;28.30;;;;;;;46.16;7.94;99176.44;108560;1281;22048;-75
2023/10/19 10:45:07;;;;;;;35.80;26.80;;;;;;;46.14;7.83;99175.30;108823;1275;21970;-77
2023/10/19 10:47:54;;;;;;;34.80;26.00;;;;;;;46.04;7.81;99168.20;108898;1275;22837;-75
2023/10/19 10:50:42;;;;;;;31.80;26.20;;;;;;;46.20;7.92;99161.17;108619;1279;22183;-76
2023/10/19 10:53:17;;;;;;;36.40;27.60;;;;;;;46.38;7.79;99159.82;109024;1275;23708;-77
2023/10/19 10:55:47;;;;;;;37.10;29.60;;;;;;;46.55;7.88;99154.72;109047;1275;22997;-75
2023/10/19 10:58:21;;;;;;;32.20;26.10;;;;;;;46.60;7.90;99147.30;109189;1274;22013;-79
2023/10/19 11:00:54;;;;;;;35.50;29.50;;;;;;;46.65;7.65;99146.20;109644;1268;23128;-77
2023/10/19 11:03:30;;;;;;;37.90;29.90;;;;;;;46.81;7.77;99146.11;109737;1268;23648;-77
2023/10/19 11:06:13;;;;;;;33.60;27.40;;;;;;;46.81;7.94;99142.38;109256;1273;23058;-77
2023/10/19 11:08:45;;;;;;;41.60;30.70;;;;;;;46.79;7.73;99141.75;109200;1270;22754;-76
2023/10/19 11:11:14;;;;;;;32.90;28.60;;;;;;;46.77;7.90;99136.75;109348;1268;23616;-77
2023/10/19 11:13:43;;;;;;;34.90;29.40;;;;;;;46.71;7.93;99131.44;109553;1267;22040;-76
2023/10/19 11:16:23;;;;;;;32.50;29.00;;;;;;;46.66;7.95;99130.31;108850;1276;22078;-76
2023/10/19 11:18:55;;;;;;;31.10;27.70;;;;;;;46.60;7.97;99131.95;108841;1277;24096;-78
2023/10/19 11:21:25;;;;;;;32.90;29.10;;;;;;;46.75;7.86;99135.55;108880;1277;24325;-77
2023/10/19 11:23:58;;;;;;;32.90;29.20;;;;;;;46.87;8.02;99137.61;108888;1274;23695;-79
2023/10/19 11:26:29;;;;;;;35.00;28.70;;;;;;;46.95;7.99;99138.10;108744;1277;22858;-77
2023/10/19 11:29:05;;;;;;;36.00;28.80;;;;;;;46.99;7.88;99138.58;108670;1279;22935;-78
2023/10/19 11:31:39;;;;;;;32.20;27.70;;;;;;;47.11;7.88;99132.87;108675;1279;22999;-77
2023/10/19 11:34:24;;;;;;;34.20;29.70;;;;;;;47.13;7.96;99127.63;108806;1273;21996;-77
2023/10/19 11:37:09;;;;;;;31.10;27.80;;;;;;;47.06;7.82;99129.09;109122;1273;22054;-77
2023/10/19 11:39:52;;;;;;;35.30;29.10;;;;;;;46.89;7.97;99119.79;109080;1273;22909;-78
2023/10/19 11:42:28;;;;;;;32.80;26.80;;;;;;;46.82;8.13;99107.95;109285;1270;21977;-78
2023/10/19 11:45:16;;;;;;;31.60;27.40;;;;;;;46.67;8.11;99113.46;110008;1265;21999;-78
2023/10/19 11:47:56;;;;;;;35.60;30.00;;;;;;;46.69;8.34;99100.80;110158;1265;22964;-78
2023/10/19 11:50:32;;;;;;;37.60;28.10;;;;;;;46.75;8.36;99096.64;110303;1263;22740;-78
2023/10/19 11:53:16;;;;;;;34.70;28.30;;;;;;;46.63;8.19;99105.75;110099;1264;21976;-78
2023/10/19 11:56:05;;;;;;;37.60;29.60;;;;;;;46.64;8.36;99114.38;109917;1265;23642;-80
2023/10/19 11:58:46;;;;;;;36.10;29.90;;;;;;;46.84;8.38;99113.80;109903;1265;22751;-77
2023/10/19 12:01:18;;;;;;;34.80;29.10;;;;;;;46.89;8.24;99103.83;109447;1270;24495;-78
2023/10/19 12:03:53;;;;;;;34.60;29.90;;;;;;;46.87;8.24;99095.62;109078;1274;22384;-79
2023/10/19 12:06:29;;;;;;;32.00;28.10;;;;;;;46.81;8.30;99083.34;109001;1274;22121;-78
2023/10/19 12:09:14;;;;;;;36.10;30.20;;;;;;;46.82;8.36;99077.69;108899;1274;21979;-78
2023/10/19 12:11:47;;;;;;;34.10;29.20;;;;;;;47.07;8.23;99073.00;108933;1277;23261;-78
2023/10/19 12:14:18;;;;;;;34.80;31.00;;;;;;;46.99;8.27;99068.08;108958;1275;22280;-77
2023/10/19 12:16:52;;;;;;;34.20;28.60;;;;;;;46.68;8.46;99062.71;108885;1277;24580;-76
2023/10/19 12:19:39;;;;;;;32.70;28.80;;;;;;;46.64;8.60;99059.87;108859;1277;24638;-78
2023/10/19 12:22:21;;;;;;;34.10;30.40;;;;;;;46.79;8.34;99062.27;109022;1271;21987;-78
2023/10/19 12:24:51;;;;;;;34.20;30.70;;;;;;;46.65;8.69;99061.59;108928;1275;23024;-78
2023/10/19 12:27:24;;;;;;;34.00;28.70;;;;;;;46.40;8.61;99050.86;109128;1273;22483;-76
2023/10/19 12:30:01;;;;;;;33.40;27.80;;;;;;;46.55;8.61;99038.13;109395;1272;22994;-76
2023/10/19 12:32:36;;;;;;;36.10;32.20;;;;;;;46.40;8.70;99033.61;109313;1273;21997;-76